sensor_id;sensor_type;location;lat;lon;timestamp;pressure;altitude;pressure_sealevel;temperature;humidity
50632;BME280;49583;45.590;-122.498;2024-02-15T00:01:28;100333.70;;;3.64;74.96
50632;BME280;49583;45.590;-122.498;2024-02-15T00:03:41;100329.31;;;3.63;75.31
50632;BME280;49583;45.590;-122.498;2024-02-15T00:05:53;100324.57;;;3.62;75.75
50632;BME280;49583;45.590;-122.498;2024-02-15T00:08:07;100321.16;;;3.60;75.92
50632;BME280;49583;45.590;-122.498;2024-02-15T00:10:20;100318.35;;;3.62;76.32
50632;BME280;49583;45.590;-122.498;2024-02-15T00:12:35;100309.11;;;3.63;75.99
50632;BME280;49583;45.590;-122.498;2024-02-15T00:14:48;100302.45;;;3.65;76.11
50632;BME280;49583;45.590;-122.498;2024-02-15T00:17:01;100303.27;;;3.66;76.18
50632;BME280;49583;45.590;-122.498;2024-02-15T00:19:15;100294.19;;;3.67;76.28
50632;BME280;49583;45.590;-122.498;2024-02-15T00:21:27;100310.80;;;3.68;76.78
50632;BME280;49583;45.590;-122.498;2024-02-15T00:23:40;100306.30;;;3.67;76.70
50632;BME280;49583;45.590;-122.498;2024-02-15T00:25:53;100297.05;;;3.67;75.91
50632;BME280;49583;45.590;-122.498;2024-02-15T00:28:07;100297.09;;;3.67;76.14
50632;BME280;49583;45.590;-122.498;2024-02-15T00:30:19;100296.16;;;3.67;75.87
50632;BME280;49583;45.590;-122.498;2024-02-15T00:32:33;100298.78;;;3.67;76.16
50632;BME280;49583;45.590;-122.498;2024-02-15T00:34:47;100296.20;;;3.70;75.96
50632;BME280;49583;45.590;-122.498;2024-02-15T00:37:03;100290.52;;;3.71;76.52
50632;BME280;49583;45.590;-122.498;2024-02-15T00:39:16;100294.80;;;3.74;77.12
50632;BME280;49583;45.590;-122.498;2024-02-15T00:41:30;100297.17;;;3.76;77.24
50632;BME280;49583;45.590;-122.498;2024-02-15T00:43:44;100298.38;;;3.77;76.84
50632;BME280;49583;45.590;-122.498;2024-02-15T00:45:57;100301.64;;;3.77;76.89
50632;BME280;49583;45.590;-122.498;2024-02-15T00:48:10;100315.34;;;3.78;76.64
50632;BME280;49583;45.590;-122.498;2024-02-15T00:50:23;100318.92;;;3.77;76.53
50632;BME280;49583;45.590;-122.498;2024-02-15T00:52:36;100318.08;;;3.75;77.03
50632;BME280;49583;45.590;-122.498;2024-02-15T00:54:49;100317.08;;;3.75;76.86
50632;BME280;49583;45.590;-122.498;2024-02-15T00:57:03;100304.23;;;3.75;77.21
50632;BME280;49583;45.590;-122.498;2024-02-15T00:59:16;100313.10;;;3.75;77.39
50632;BME280;49583;45.590;-122.498;2024-02-15T01:01:29;100312.67;;;3.74;77.26
50632;BME280;49583;45.590;-122.498;2024-02-15T01:03:41;100310.64;;;3.72;77.47
50632;BME280;49583;45.590;-122.498;2024-02-15T01:05:55;100316.20;;;3.71;77.02
50632;BME280;49583;45.590;-122.498;2024-02-15T01:08:08;100307.73;;;3.70;77.09
50632;BME280;49583;45.590;-122.498;2024-02-15T01:10:25;100300.66;;;3.69;76.95
50632;BME280;49583;45.590;-122.498;2024-02-15T01:12:42;100296.88;;;3.69;76.64
50632;BME280;49583;45.590;-122.498;2024-02-15T01:14:54;100298.59;;;3.70;77.30
50632;BME280;49583;45.590;-122.498;2024-02-15T01:17:09;100287.28;;;3.69;77.84
50632;BME280;49583;45.590;-122.498;2024-02-15T01:19:22;100295.46;;;3.67;78.10
50632;BME280;49583;45.590;-122.498;2024-02-15T01:21:35;100297.12;;;3.65;78.09
50632;BME280;49583;45.590;-122.498;2024-02-15T01:23:48;100286.64;;;3.61;78.47
50632;BME280;49583;45.590;-122.498;2024-02-15T01:26:04;100285.13;;;3.59;78.82
50632;BME280;49583;45.590;-122.498;2024-02-15T01:28:17;100275.13;;;3.57;79.25
50632;BME280;49583;45.590;-122.498;2024-02-15T01:30:30;100266.59;;;3.57;79.10
50632;BME280;49583;45.590;-122.498;2024-02-15T01:32:43;100265.06;;;3.54;78.98
50632;BME280;49583;45.590;-122.498;2024-02-15T01:34:56;100268.61;;;3.53;79.14
50632;BME280;49583;45.590;-122.498;2024-02-15T01:37:08;100270.71;;;3.50;79.22
50632;BME280;49583;45.590;-122.498;2024-02-15T01:39:21;100265.52;;;3.47;79.26
50632;BME280;49583;45.590;-122.498;2024-02-15T01:41:35;100254.68;;;3.45;79.14
50632;BME280;49583;45.590;-122.498;2024-02-15T01:43:50;100251.02;;;3.44;78.91
50632;BME280;49583;45.590;-122.498;2024-02-15T01:46:07;100250.32;;;3.43;79.18
50632;BME280;49583;45.590;-122.498;2024-02-15T01:48:20;100247.58;;;3.44;79.01
50632;BME280;49583;45.590;-122.498;2024-02-15T01:50:33;100239.96;;;3.43;79.29
50632;BME280;49583;45.590;-122.498;2024-02-15T01:52:48;100239.23;;;3.42;79.48
50632;BME280;49583;45.590;-122.498;2024-02-15T01:55:06;100236.49;;;3.42;79.63
50632;BME280;49583;45.590;-122.498;2024-02-15T01:57:20;100232.08;;;3.41;79.89
50632;BME280;49583;45.590;-122.498;2024-02-15T01:59:33;100260.43;;;3.40;80.23
50632;BME280;49583;45.590;-122.498;2024-02-15T02:01:47;100270.78;;;3.40;79.78
50632;BME280;49583;45.590;-122.498;2024-02-15T02:04:00;100272.92;;;3.39;79.32
50632;BME280;49583;45.590;-122.498;2024-02-15T02:06:13;100283.67;;;3.38;79.48
50632;BME280;49583;45.590;-122.498;2024-02-15T02:08:25;100284.07;;;3.39;79.77
50632;BME280;49583;45.590;-122.498;2024-02-15T02:10:39;100276.13;;;3.40;79.97
50632;BME280;49583;45.590;-122.498;2024-02-15T02:12:53;100276.95;;;3.41;79.92
50632;BME280;49583;45.590;-122.498;2024-02-15T02:15:09;100265.58;;;3.41;80.04
50632;BME280;49583;45.590;-122.498;2024-02-15T02:17:21;100268.66;;;3.41;80.30
50632;BME280;49583;45.590;-122.498;2024-02-15T02:19:34;100269.61;;;3.42;80.22
50632;BME280;49583;45.590;-122.498;2024-02-15T02:21:47;100262.86;;;3.41;80.32
50632;BME280;49583;45.590;-122.498;2024-02-15T02:24:02;100262.73;;;3.38;80.43
50632;BME280;49583;45.590;-122.498;2024-02-15T02:26:17;100247.23;;;3.39;80.49
50632;BME280;49583;45.590;-122.498;2024-02-15T02:28:31;100262.92;;;3.41;80.41
50632;BME280;49583;45.590;-122.498;2024-02-15T02:30:43;100268.83;;;3.41;80.24
50632;BME280;49583;45.590;-122.498;2024-02-15T02:32:56;100263.56;;;3.42;80.16
50632;BME280;49583;45.590;-122.498;2024-02-15T02:35:10;100265.76;;;3.42;79.83
50632;BME280;49583;45.590;-122.498;2024-02-15T02:37:24;100264.20;;;3.42;79.74
50632;BME280;49583;45.590;-122.498;2024-02-15T02:39:36;100269.01;;;3.42;79.66
50632;BME280;49583;45.590;-122.498;2024-02-15T02:41:49;100255.54;;;3.42;79.40
50632;BME280;49583;45.590;-122.498;2024-02-15T02:44:02;100268.31;;;3.44;79.62
50632;BME280;49583;45.590;-122.498;2024-02-15T02:46:15;100255.86;;;3.46;79.71
50632;BME280;49583;45.590;-122.498;2024-02-15T02:48:27;100257.02;;;3.47;79.68
50632;BME280;49583;45.590;-122.498;2024-02-15T02:50:40;100254.01;;;3.49;80.04
50632;BME280;49583;45.590;-122.498;2024-02-15T02:52:54;100253.80;;;3.52;80.16
50632;BME280;49583;45.590;-122.498;2024-02-15T02:55:08;100262.23;;;3.54;80.20
50632;BME280;49583;45.590;-122.498;2024-02-15T02:57:21;100263.17;;;3.54;80.56
50632;BME280;49583;45.590;-122.498;2024-02-15T02:59:35;100247.45;;;3.53;80.79
50632;BME280;49583;45.590;-122.498;2024-02-15T03:01:50;100237.30;;;3.52;81.11
50632;BME280;49583;45.590;-122.498;2024-02-15T03:04:07;100243.52;;;3.48;80.91
50632;BME280;49583;45.590;-122.498;2024-02-15T03:06:19;100238.23;;;3.45;80.95
50632;BME280;49583;45.590;-122.498;2024-02-15T03:08:35;100254.02;;;3.44;80.80
50632;BME280;49583;45.590;-122.498;2024-02-15T03:10:47;100256.61;;;3.42;80.69
50632;BME280;49583;45.590;-122.498;2024-02-15T03:13:01;100265.02;;;3.41;80.80
50632;BME280;49583;45.590;-122.498;2024-02-15T03:15:16;100266.46;;;3.40;80.72
50632;BME280;49583;45.590;-122.498;2024-02-15T03:17:28;100279.31;;;3.39;80.89
50632;BME280;49583;45.590;-122.498;2024-02-15T03:19:41;100270.34;;;3.39;80.78
50632;BME280;49583;45.590;-122.498;2024-02-15T03:21:54;100279.48;;;3.39;80.59
50632;BME280;49583;45.590;-122.498;2024-02-15T03:24:07;100277.72;;;3.39;80.65
50632;BME280;49583;45.590;-122.498;2024-02-15T03:26:28;100274.24;;;3.40;80.57
50632;BME280;49583;45.590;-122.498;2024-02-15T03:28:41;100259.45;;;3.41;80.58
50632;BME280;49583;45.590;-122.498;2024-02-15T03:30:54;100243.19;;;3.42;80.62
50632;BME280;49583;45.590;-122.498;2024-02-15T03:33:09;100220.05;;;3.43;80.88
50632;BME280;49583;45.590;-122.498;2024-02-15T03:35:23;100228.28;;;3.44;80.94
50632;BME280;49583;45.590;-122.498;2024-02-15T03:37:36;100237.23;;;3.46;81.05
50632;BME280;49583;45.590;-122.498;2024-02-15T03:39:50;100231.79;;;3.47;80.84
50632;BME280;49583;45.590;-122.498;2024-02-15T03:42:03;100234.77;;;3.48;80.72
50632;BME280;49583;45.590;-122.498;2024-02-15T03:44:16;100246.92;;;3.48;80.98
50632;BME280;49583;45.590;-122.498;2024-02-15T03:46:30;100250.70;;;3.48;80.85
50632;BME280;49583;45.590;-122.498;2024-02-15T03:48:44;100251.56;;;3.48;80.91
50632;BME280;49583;45.590;-122.498;2024-02-15T03:50:57;100247.11;;;3.45;81.10
50632;BME280;49583;45.590;-122.498;2024-02-15T03:53:12;100249.81;;;3.47;80.90
50632;BME280;49583;45.590;-122.498;2024-02-15T03:55:24;100259.17;;;3.47;81.30
50632;BME280;49583;45.590;-122.498;2024-02-15T03:57:40;100260.61;;;3.48;80.82
50632;BME280;49583;45.590;-122.498;2024-02-15T03:59:54;100252.30;;;3.47;80.99
50632;BME280;49583;45.590;-122.498;2024-02-15T04:02:07;100264.88;;;3.46;81.10
50632;BME280;49583;45.590;-122.498;2024-02-15T04:04:25;100253.70;;;3.45;81.31
50632;BME280;49583;45.590;-122.498;2024-02-15T04:06:40;100250.64;;;3.45;81.76
50632;BME280;49583;45.590;-122.498;2024-02-15T04:08:53;100266.97;;;3.43;81.90
50632;BME280;49583;45.590;-122.498;2024-02-15T04:11:06;100264.65;;;3.41;81.93
50632;BME280;49583;45.590;-122.498;2024-02-15T04:13:21;100278.73;;;3.41;82.24
50632;BME280;49583;45.590;-122.498;2024-02-15T04:15:33;100277.79;;;3.39;81.85
50632;BME280;49583;45.590;-122.498;2024-02-15T04:17:48;100285.11;;;3.37;82.04
50632;BME280;49583;45.590;-122.498;2024-02-15T04:20:07;100285.16;;;3.35;82.35
50632;BME280;49583;45.590;-122.498;2024-02-15T04:22:22;100297.48;;;3.31;82.38
50632;BME280;49583;45.590;-122.498;2024-02-15T04:24:34;100286.27;;;3.28;82.51
50632;BME280;49583;45.590;-122.498;2024-02-15T04:26:49;100289.31;;;3.27;82.50
50632;BME280;49583;45.590;-122.498;2024-02-15T04:29:02;100288.71;;;3.26;82.80
50632;BME280;49583;45.590;-122.498;2024-02-15T04:31:17;100291.62;;;3.23;82.89
50632;BME280;49583;45.590;-122.498;2024-02-15T04:33:37;100291.30;;;3.21;82.86
50632;BME280;49583;45.590;-122.498;2024-02-15T04:35:50;100288.27;;;3.19;82.75
50632;BME280;49583;45.590;-122.498;2024-02-15T04:38:03;100285.81;;;3.20;83.19
50632;BME280;49583;45.590;-122.498;2024-02-15T04:40:19;100297.45;;;3.22;83.34
50632;BME280;49583;45.590;-122.498;2024-02-15T04:42:31;100286.56;;;3.24;83.65
50632;BME280;49583;45.590;-122.498;2024-02-15T04:44:44;100290.99;;;3.25;84.19
50632;BME280;49583;45.590;-122.498;2024-02-15T04:46:57;100273.73;;;3.27;84.00
50632;BME280;49583;45.590;-122.498;2024-02-15T04:49:11;100269.58;;;3.22;84.16
50632;BME280;49583;45.590;-122.498;2024-02-15T04:51:23;100288.89;;;3.27;83.66
50632;BME280;49583;45.590;-122.498;2024-02-15T04:53:37;100302.49;;;3.25;83.89
50632;BME280;49583;45.590;-122.498;2024-02-15T04:55:51;100325.07;;;3.21;84.10
50632;BME280;49583;45.590;-122.498;2024-02-15T04:58:05;100313.42;;;3.18;83.78
50632;BME280;49583;45.590;-122.498;2024-02-15T05:00:21;100304.45;;;3.16;84.13
50632;BME280;49583;45.590;-122.498;2024-02-15T05:02:35;100307.23;;;3.13;84.22
50632;BME280;49583;45.590;-122.498;2024-02-15T05:04:51;100301.48;;;3.11;84.50
50632;BME280;49583;45.590;-122.498;2024-02-15T05:07:06;100297.59;;;3.10;84.67
50632;BME280;49583;45.590;-122.498;2024-02-15T05:09:19;100278.41;;;3.09;84.90
50632;BME280;49583;45.590;-122.498;2024-02-15T05:11:32;100273.33;;;3.08;84.92
50632;BME280;49583;45.590;-122.498;2024-02-15T05:13:47;100268.73;;;3.08;85.00
50632;BME280;49583;45.590;-122.498;2024-02-15T05:16:06;100264.11;;;3.09;85.27
50632;BME280;49583;45.590;-122.498;2024-02-15T05:18:40;100262.10;;;3.12;85.13
50632;BME280;49583;45.590;-122.498;2024-02-15T05:20:53;100266.82;;;3.14;85.12
50632;BME280;49583;45.590;-122.498;2024-02-15T05:23:06;100260.11;;;3.14;85.23
50632;BME280;49583;45.590;-122.498;2024-02-15T05:25:18;100263.80;;;3.17;85.02
50632;BME280;49583;45.590;-122.498;2024-02-15T05:27:35;100267.82;;;3.17;85.22
50632;BME280;49583;45.590;-122.498;2024-02-15T05:29:48;100251.80;;;3.16;85.12
50632;BME280;49583;45.590;-122.498;2024-02-15T05:32:03;100237.40;;;3.18;84.93
50632;BME280;49583;45.590;-122.498;2024-02-15T05:34:19;100255.60;;;3.19;84.96
50632;BME280;49583;45.590;-122.498;2024-02-15T05:36:35;100260.39;;;3.18;85.04
50632;BME280;49583;45.590;-122.498;2024-02-15T05:38:48;100262.48;;;3.20;85.16
50632;BME280;49583;45.590;-122.498;2024-02-15T05:41:01;100263.67;;;3.22;85.04
50632;BME280;49583;45.590;-122.498;2024-02-15T05:43:14;100271.79;;;3.24;84.95
50632;BME280;49583;45.590;-122.498;2024-02-15T05:45:33;100270.59;;;3.27;84.99
50632;BME280;49583;45.590;-122.498;2024-02-15T05:47:47;100263.52;;;3.28;84.98
50632;BME280;49583;45.590;-122.498;2024-02-15T05:50:00;100259.80;;;3.29;84.92
50632;BME280;49583;45.590;-122.498;2024-02-15T05:52:16;100265.52;;;3.31;84.88
50632;BME280;49583;45.590;-122.498;2024-02-15T05:54:29;100275.99;;;3.34;85.19
50632;BME280;49583;45.590;-122.498;2024-02-15T05:56:41;100273.30;;;3.36;84.68
50632;BME280;49583;45.590;-122.498;2024-02-15T05:58:54;100265.20;;;3.36;84.70
50632;BME280;49583;45.590;-122.498;2024-02-15T06:01:07;100265.11;;;3.38;84.91
50632;BME280;49583;45.590;-122.498;2024-02-15T06:03:23;100245.11;;;3.40;85.18
50632;BME280;49583;45.590;-122.498;2024-02-15T06:05:36;100254.30;;;3.42;85.02
50632;BME280;49583;45.590;-122.498;2024-02-15T06:07:49;100227.20;;;3.43;85.18
50632;BME280;49583;45.590;-122.498;2024-02-15T06:10:03;100233.95;;;3.43;85.27
50632;BME280;49583;45.590;-122.498;2024-02-15T06:12:18;100242.84;;;3.45;85.25
50632;BME280;49583;45.590;-122.498;2024-02-15T06:14:30;100246.46;;;3.45;85.17
50632;BME280;49583;45.590;-122.498;2024-02-15T06:16:46;100245.83;;;3.46;85.14
50632;BME280;49583;45.590;-122.498;2024-02-15T06:18:59;100245.77;;;3.46;85.19
50632;BME280;49583;45.590;-122.498;2024-02-15T06:21:12;100230.64;;;3.45;85.26
50632;BME280;49583;45.590;-122.498;2024-02-15T06:23:25;100243.28;;;3.48;85.48
50632;BME280;49583;45.590;-122.498;2024-02-15T06:25:38;100259.25;;;3.51;85.49
50632;BME280;49583;45.590;-122.498;2024-02-15T06:27:52;100265.85;;;3.53;85.24
50632;BME280;49583;45.590;-122.498;2024-02-15T06:30:10;100268.42;;;3.54;85.41
50632;BME280;49583;45.590;-122.498;2024-02-15T06:32:39;100274.30;;;3.55;85.07
50632;BME280;49583;45.590;-122.498;2024-02-15T06:35:09;100260.46;;;3.54;84.60
50632;BME280;49583;45.590;-122.498;2024-02-15T06:37:41;100266.90;;;3.53;84.52
50632;BME280;49583;45.590;-122.498;2024-02-15T06:40:11;100276.77;;;3.50;84.28
50632;BME280;49583;45.590;-122.498;2024-02-15T06:42:24;100277.17;;;3.46;84.28
50632;BME280;49583;45.590;-122.498;2024-02-15T06:44:36;100284.36;;;3.43;84.50
50632;BME280;49583;45.590;-122.498;2024-02-15T06:46:50;100289.15;;;3.39;84.63
50632;BME280;49583;45.590;-122.498;2024-02-15T06:49:03;100277.63;;;3.36;84.60
50632;BME280;49583;45.590;-122.498;2024-02-15T06:51:17;100267.94;;;3.34;85.06
50632;BME280;49583;45.590;-122.498;2024-02-15T06:53:30;100268.64;;;3.34;85.00
50632;BME280;49583;45.590;-122.498;2024-02-15T06:55:43;100262.67;;;3.31;85.15
50632;BME280;49583;45.590;-122.498;2024-02-15T06:57:56;100267.45;;;3.31;85.50
50632;BME280;49583;45.590;-122.498;2024-02-15T07:00:12;100262.27;;;3.32;85.44
50632;BME280;49583;45.590;-122.498;2024-02-15T07:02:25;100251.43;;;3.33;85.43
50632;BME280;49583;45.590;-122.498;2024-02-15T07:04:40;100245.04;;;3.31;85.44
50632;BME280;49583;45.590;-122.498;2024-02-15T07:06:52;100245.45;;;3.30;85.90
50632;BME280;49583;45.590;-122.498;2024-02-15T07:09:06;100254.02;;;3.28;85.86
50632;BME280;49583;45.590;-122.498;2024-02-15T07:11:20;100250.59;;;3.26;86.00
50632;BME280;49583;45.590;-122.498;2024-02-15T07:13:33;100258.61;;;3.23;86.02
50632;BME280;49583;45.590;-122.498;2024-02-15T07:15:47;100259.91;;;3.22;86.14
50632;BME280;49583;45.590;-122.498;2024-02-15T07:18:00;100261.81;;;3.19;86.13
50632;BME280;49583;45.590;-122.498;2024-02-15T07:20:13;100262.70;;;3.18;86.30
50632;BME280;49583;45.590;-122.498;2024-02-15T07:22:27;100237.33;;;3.18;86.59
50632;BME280;49583;45.590;-122.498;2024-02-15T07:24:42;100243.17;;;3.17;86.96
50632;BME280;49583;45.590;-122.498;2024-02-15T07:26:55;100251.74;;;3.17;87.03
50632;BME280;49583;45.590;-122.498;2024-02-15T07:29:07;100260.04;;;3.17;87.58
50632;BME280;49583;45.590;-122.498;2024-02-15T07:31:27;100265.70;;;3.18;87.62
50632;BME280;49583;45.590;-122.498;2024-02-15T07:33:40;100266.02;;;3.15;87.79
50632;BME280;49583;45.590;-122.498;2024-02-15T07:35:53;100274.77;;;3.17;87.88
50632;BME280;49583;45.590;-122.498;2024-02-15T07:38:06;100272.57;;;3.18;87.90
50632;BME280;49583;45.590;-122.498;2024-02-15T07:40:19;100272.51;;;3.16;87.96
50632;BME280;49583;45.590;-122.498;2024-02-15T07:42:33;100273.05;;;3.20;87.81
50632;BME280;49583;45.590;-122.498;2024-02-15T07:44:45;100275.34;;;3.21;87.91
50632;BME280;49583;45.590;-122.498;2024-02-15T07:46:58;100260.36;;;3.23;87.75
50632;BME280;49583;45.590;-122.498;2024-02-15T07:49:12;100264.11;;;3.26;87.97
50632;BME280;49583;45.590;-122.498;2024-02-15T07:51:26;100250.06;;;3.26;87.72
50632;BME280;49583;45.590;-122.498;2024-02-15T07:53:39;100252.13;;;3.31;87.66
50632;BME280;49583;45.590;-122.498;2024-02-15T07:55:53;100255.33;;;3.35;87.98
50632;BME280;49583;45.590;-122.498;2024-02-15T07:58:06;100254.36;;;3.39;88.01
50632;BME280;49583;45.590;-122.498;2024-02-15T08:00:19;100250.38;;;3.42;87.98
50632;BME280;49583;45.590;-122.498;2024-02-15T08:02:32;100250.41;;;3.45;87.95
50632;BME280;49583;45.590;-122.498;2024-02-15T08:04:44;100252.02;;;3.46;87.64
50632;BME280;49583;45.590;-122.498;2024-02-15T08:06:58;100262.84;;;3.46;87.91
50632;BME280;49583;45.590;-122.498;2024-02-15T08:09:11;100266.40;;;3.43;87.69
50632;BME280;49583;45.590;-122.498;2024-02-15T08:11:24;100255.01;;;3.40;87.30
50632;BME280;49583;45.590;-122.498;2024-02-15T08:13:37;100268.45;;;3.40;87.78
50632;BME280;49583;45.590;-122.498;2024-02-15T08:15:49;100276.23;;;3.39;87.56
50632;BME280;49583;45.590;-122.498;2024-02-15T08:18:03;100269.64;;;3.37;87.51
50632;BME280;49583;45.590;-122.498;2024-02-15T08:20:19;100270.96;;;3.34;87.22
50632;BME280;49583;45.590;-122.498;2024-02-15T08:22:33;100268.05;;;3.32;87.13
50632;BME280;49583;45.590;-122.498;2024-02-15T08:24:47;100266.14;;;3.31;87.35
50632;BME280;49583;45.590;-122.498;2024-02-15T08:27:00;100265.95;;;3.32;87.55
50632;BME280;49583;45.590;-122.498;2024-02-15T08:29:15;100260.52;;;3.34;87.47
50632;BME280;49583;45.590;-122.498;2024-02-15T08:31:28;100267.46;;;3.35;87.63
50632;BME280;49583;45.590;-122.498;2024-02-15T08:33:41;100271.60;;;3.36;87.68
50632;BME280;49583;45.590;-122.498;2024-02-15T08:35:55;100266.83;;;3.36;87.80
50632;BME280;49583;45.590;-122.498;2024-02-15T08:38:08;100260.46;;;3.36;87.74
50632;BME280;49583;45.590;-122.498;2024-02-15T08:40:20;100254.92;;;3.33;88.00
50632;BME280;49583;45.590;-122.498;2024-02-15T08:42:35;100249.33;;;3.30;88.21
50632;BME280;49583;45.590;-122.498;2024-02-15T08:44:48;100262.29;;;3.30;88.57
50632;BME280;49583;45.590;-122.498;2024-02-15T08:47:01;100254.73;;;3.27;88.44
50632;BME280;49583;45.590;-122.498;2024-02-15T08:49:15;100260.95;;;3.26;88.76
50632;BME280;49583;45.590;-122.498;2024-02-15T08:51:27;100264.40;;;3.25;88.38
50632;BME280;49583;45.590;-122.498;2024-02-15T08:53:40;100259.44;;;3.25;88.48
50632;BME280;49583;45.590;-122.498;2024-02-15T08:55:53;100254.56;;;3.25;88.66
50632;BME280;49583;45.590;-122.498;2024-02-15T08:58:06;100249.64;;;3.26;88.59
50632;BME280;49583;45.590;-122.498;2024-02-15T09:00:20;100238.11;;;3.27;89.14
50632;BME280;49583;45.590;-122.498;2024-02-15T09:02:33;100237.39;;;3.31;88.90
50632;BME280;49583;45.590;-122.498;2024-02-15T09:04:46;100224.34;;;3.34;88.63
50632;BME280;49583;45.590;-122.498;2024-02-15T09:06:59;100220.21;;;3.36;88.83
50632;BME280;49583;45.590;-122.498;2024-02-15T09:09:14;100231.48;;;3.40;88.75
50632;BME280;49583;45.590;-122.498;2024-02-15T09:11:30;100227.01;;;3.42;88.71
50632;BME280;49583;45.590;-122.498;2024-02-15T09:13:44;100242.65;;;3.42;88.46
50632;BME280;49583;45.590;-122.498;2024-02-15T09:15:59;100249.11;;;3.43;88.98
50632;BME280;49583;45.590;-122.498;2024-02-15T09:18:13;100249.36;;;3.44;88.50
50632;BME280;49583;45.590;-122.498;2024-02-15T09:20:28;100248.54;;;3.42;88.56
50632;BME280;49583;45.590;-122.498;2024-02-15T09:22:42;100251.81;;;3.39;88.25
50632;BME280;49583;45.590;-122.498;2024-02-15T09:24:56;100249.28;;;3.35;88.34
50632;BME280;49583;45.590;-122.498;2024-02-15T09:27:09;100259.45;;;3.32;87.92
50632;BME280;49583;45.590;-122.498;2024-02-15T09:29:22;100262.39;;;3.30;87.99
50632;BME280;49583;45.590;-122.498;2024-02-15T09:31:36;100269.58;;;3.28;88.20
50632;BME280;49583;45.590;-122.498;2024-02-15T09:33:50;100259.33;;;3.28;88.09
50632;BME280;49583;45.590;-122.498;2024-02-15T09:36:03;100260.11;;;3.26;87.83
50632;BME280;49583;45.590;-122.498;2024-02-15T09:38:16;100261.90;;;3.26;88.23
50632;BME280;49583;45.590;-122.498;2024-02-15T09:40:29;100268.31;;;3.24;88.19
50632;BME280;49583;45.590;-122.498;2024-02-15T09:42:44;100283.02;;;3.25;87.96
50632;BME280;49583;45.590;-122.498;2024-02-15T09:44:57;100284.84;;;3.24;88.15
50632;BME280;49583;45.590;-122.498;2024-02-15T09:47:11;100284.05;;;3.23;88.03
50632;BME280;49583;45.590;-122.498;2024-02-15T09:49:25;100288.75;;;3.23;88.15
50632;BME280;49583;45.590;-122.498;2024-02-15T09:51:40;100279.46;;;3.23;88.08
50632;BME280;49583;45.590;-122.498;2024-02-15T09:53:55;100285.59;;;3.22;88.24
50632;BME280;49583;45.590;-122.498;2024-02-15T09:56:09;100294.19;;;3.21;88.38
50632;BME280;49583;45.590;-122.498;2024-02-15T09:58:22;100291.80;;;3.19;88.37
50632;BME280;49583;45.590;-122.498;2024-02-15T10:00:36;100289.27;;;3.17;88.32
50632;BME280;49583;45.590;-122.498;2024-02-15T10:02:50;100297.35;;;3.17;88.69
50632;BME280;49583;45.590;-122.498;2024-02-15T10:05:06;100308.17;;;3.15;88.65
50632;BME280;49583;45.590;-122.498;2024-02-15T10:07:22;100302.09;;;3.14;88.57
50632;BME280;49583;45.590;-122.498;2024-02-15T10:09:35;100298.84;;;3.14;88.53
50632;BME280;49583;45.590;-122.498;2024-02-15T10:11:55;100305.02;;;3.14;88.63
50632;BME280;49583;45.590;-122.498;2024-02-15T10:14:14;100320.48;;;3.16;88.90
50632;BME280;49583;45.590;-122.498;2024-02-15T10:16:28;100322.52;;;3.18;88.93
50632;BME280;49583;45.590;-122.498;2024-02-15T10:18:45;100331.17;;;3.20;89.58
50632;BME280;49583;45.590;-122.498;2024-02-15T10:21:01;100322.08;;;3.22;89.45
50632;BME280;49583;45.590;-122.498;2024-02-15T10:23:14;100305.29;;;3.24;89.87
50632;BME280;49583;45.590;-122.498;2024-02-15T10:25:29;100296.91;;;3.24;90.19
50632;BME280;49583;45.590;-122.498;2024-02-15T10:27:42;100280.70;;;3.25;90.42
50632;BME280;49583;45.590;-122.498;2024-02-15T10:29:58;100284.27;;;3.27;90.66
50632;BME280;49583;45.590;-122.498;2024-02-15T10:32:36;100296.67;;;3.31;90.92
50632;BME280;49583;45.590;-122.498;2024-02-15T10:34:49;100293.67;;;3.30;91.04
50632;BME280;49583;45.590;-122.498;2024-02-15T10:37:13;100285.17;;;3.28;90.92
50632;BME280;49583;45.590;-122.498;2024-02-15T10:39:26;100274.47;;;3.26;90.63
50632;BME280;49583;45.590;-122.498;2024-02-15T10:41:40;100279.34;;;3.26;90.65
50632;BME280;49583;45.590;-122.498;2024-02-15T10:43:53;100294.79;;;3.27;90.57
50632;BME280;49583;45.590;-122.498;2024-02-15T10:46:06;100292.37;;;3.28;91.06
50632;BME280;49583;45.590;-122.498;2024-02-15T10:48:20;100284.20;;;3.30;90.65
50632;BME280;49583;45.590;-122.498;2024-02-15T10:50:33;100298.81;;;3.32;90.64
50632;BME280;49583;45.590;-122.498;2024-02-15T10:52:51;100313.55;;;3.33;90.41
50632;BME280;49583;45.590;-122.498;2024-02-15T10:55:08;100336.14;;;3.34;90.38
50632;BME280;49583;45.590;-122.498;2024-02-15T10:57:24;100345.38;;;3.33;90.95
50632;BME280;49583;45.590;-122.498;2024-02-15T10:59:42;100332.36;;;3.30;90.86
50632;BME280;49583;45.590;-122.498;2024-02-15T11:01:59;100331.85;;;3.28;90.55
50632;BME280;49583;45.590;-122.498;2024-02-15T11:04:17;100347.32;;;3.28;90.98
50632;BME280;49583;45.590;-122.498;2024-02-15T11:06:33;100352.05;;;3.27;91.02
50632;BME280;49583;45.590;-122.498;2024-02-15T11:08:47;100350.85;;;3.25;91.08
50632;BME280;49583;45.590;-122.498;2024-02-15T11:11:01;100351.23;;;3.26;91.17
50632;BME280;49583;45.590;-122.498;2024-02-15T11:13:15;100358.39;;;3.25;91.05
50632;BME280;49583;45.590;-122.498;2024-02-15T11:15:46;100350.70;;;3.24;91.31
50632;BME280;49583;45.590;-122.498;2024-02-15T11:18:02;100353.71;;;3.21;91.44
50632;BME280;49583;45.590;-122.498;2024-02-15T11:20:48;100353.23;;;3.18;91.27
50632;BME280;49583;45.590;-122.498;2024-02-15T11:23:03;100356.20;;;3.17;91.83
50632;BME280;49583;45.590;-122.498;2024-02-15T11:25:33;100349.56;;;3.10;91.69